Time;durP1;ratioP1;P1;durP2;ratioP2;P2;SDS_P1;SDS_P2;PMS_P1;PMS_P2;Temp;Humidity;BMP_temperature;BMP_pressure;BME280_temperature;BME280_humidity;BME280_pressure;Samples;Min_cycle;Max_cycle;Signal;HPM_P1;HPM_P2
2021/12/22 00:00:25;;;;;;;38.10;19.17;;;;;;;;;;5072693;28;20445;-59
2021/12/22 00:02:51;;;;;;;44.03;19.30;;;;;;;;;;5072834;28;20454;-57
2021/12/22 00:05:19;;;;;;;35.43;18.07;;;;;;;;;;5072788;28;20925;-54
2021/12/22 00:07:45;;;;;;;42.67;19.80;;;;;;;;;;5073015;28;20410;-56
2021/12/22 00:10:11;;;;;;;45.37;21.03;;;;;;;;;;5072675;28;20415;-55
2021/12/22 00:12:37;;;;;;;41.40;17.93;;;;;;;;;;5072768;28;20407;-63
2021/12/22 00:15:04;;;;;;;41.20;20.10;;;;;;;;;;5072591;28;20414;-57
2021/12/22 00:17:30;;;;;;;42.50;20.30;;;;;;;;;;5072570;28;20498;-61
2021/12/22 00:19:56;;;;;;;40.50;18.47;;;;;;;;;;5075018;28;20465;-64
2021/12/22 00:22:22;;;;;;;39.73;19.10;;;;;;;;;;5076642;28;20438;-61
2021/12/22 00:24:48;;;;;;;43.67;19.87;;;;;;;;;;5076523;28;20532;-58
2021/12/22 00:27:14;;;;;;;41.43;20.97;;;;;;;;;;5076645;28;20410;-65
2021/12/22 00:29:44;;;;;;;41.13;20.00;;;;;;;;;;5076423;28;20395;-64
2021/12/22 00:32:13;;;;;;;43.50;19.23;;;;;;;;;;5076558;28;20895;-57
2021/12/22 00:34:46;;;;;;;41.63;18.77;;;;;;;;;;5076256;28;20395;-58
2021/12/22 00:37:13;;;;;;;42.40;19.80;;;;;;;;;;5076399;28;20426;-62
2021/12/22 00:39:39;;;;;;;37.97;18.30;;;;;;;;;;5076243;28;20433;-54
2021/12/22 00:42:05;;;;;;;47.33;21.57;;;;;;;;;;5076425;28;20410;-58
2021/12/22 00:44:31;;;;;;;40.10;19.57;;;;;;;;;;5076225;28;20561;-59
2021/12/22 00:46:57;;;;;;;43.43;19.67;;;;;;;;;;5076126;28;20410;-62
2021/12/22 00:49:23;;;;;;;43.67;18.60;;;;;;;;;;5075959;28;20415;-56
2021/12/22 00:51:49;;;;;;;45.60;20.57;;;;;;;;;;5075868;28;20480;-66
2021/12/22 00:54:15;;;;;;;44.10;21.60;;;;;;;;;;5076195;28;20483;-56
2021/12/22 00:56:41;;;;;;;44.80;21.17;;;;;;;;;;5075960;28;20407;-62
2021/12/22 00:59:07;;;;;;;43.97;21.70;;;;;;;;;;5076148;28;20430;-59
2021/12/22 01:01:33;;;;;;;45.33;20.00;;;;;;;;;;5075888;28;20406;-64
2021/12/22 01:03:59;;;;;;;45.37;21.50;;;;;;;;;;5075763;28;20884;-59
2021/12/22 01:06:25;;;;;;;49.03;22.00;;;;;;;;;;5075685;28;20401;-56
2021/12/22 01:08:51;;;;;;;45.20;22.57;;;;;;;;;;5075600;28;20403;-63
2021/12/22 01:11:17;;;;;;;49.77;21.93;;;;;;;;;;5075637;28;20425;-54
2021/12/22 01:13:43;;;;;;;48.03;21.97;;;;;;;;;;5075412;28;20414;-63
2021/12/22 01:16:09;;;;;;;46.50;21.87;;;;;;;;;;5075678;28;20406;-61
2021/12/22 01:18:36;;;;;;;45.77;22.87;;;;;;;;;;5075582;28;20413;-60
2021/12/22 01:21:19;;;;;;;39.67;21.50;;;;;;;;;;5075134;28;20538;-56
2021/12/22 01:24:00;;;;;;;45.70;21.67;;;;;;;;;;5073954;28;20470;-63
2021/12/22 01:26:33;;;;;;;47.60;21.93;;;;;;;;;;5075460;28;20468;-58
2021/12/22 01:29:00;;;;;;;41.63;22.10;;;;;;;;;;5075307;28;20408;-59
2021/12/22 01:31:26;;;;;;;44.53;21.87;;;;;;;;;;5075330;28;20501;-57
2021/12/22 01:33:52;;;;;;;48.03;23.53;;;;;;;;;;5075389;28;20418;-59
2021/12/22 01:36:18;;;;;;;49.23;23.47;;;;;;;;;;5075217;28;20415;-57
2021/12/22 01:38:44;;;;;;;49.83;22.50;;;;;;;;;;5075094;28;20410;-57
2021/12/22 01:41:10;;;;;;;47.30;21.03;;;;;;;;;;5075168;28;20419;-55
2021/12/22 01:43:36;;;;;;;50.00;21.73;;;;;;;;;;5075418;28;20819;-57
2021/12/22 01:51:25;;;;;;;38.33;20.27;;;;;;;;;;5074857;28;20410;-57
2021/12/22 01:53:51;;;;;;;37.40;20.27;;;;;;;;;;5074942;28;20415;-58
2021/12/22 01:58:47;;;;;;;44.50;20.90;;;;;;;;;;5075007;28;20411;-55
2021/12/22 02:01:15;;;;;;;43.60;21.47;;;;;;;;;;5074886;28;20751;-55
2021/12/22 02:03:41;;;;;;;41.00;19.87;;;;;;;;;;5074466;28;21012;-56
2021/12/22 02:06:08;;;;;;;41.30;20.47;;;;;;;;;;5073417;28;20407;-58
2021/12/22 02:08:35;;;;;;;35.07;18.77;;;;;;;;;;5074640;28;20463;-56
2021/12/22 02:11:01;;;;;;;40.87;20.57;;;;;;;;;;5074445;28;20497;-56
2021/12/22 02:13:32;;;;;;;40.60;21.23;;;;;;;;;;5074502;28;20484;-55
2021/12/22 02:16:06;;;;;;;40.67;20.13;;;;;;;;;;5074568;28;20419;-56
2021/12/22 02:18:33;;;;;;;42.03;21.20;;;;;;;;;;5074346;28;20449;-62
2021/12/22 02:20:59;;;;;;;39.30;19.37;;;;;;;;;;5074014;28;20538;-57
2021/12/22 02:23:25;;;;;;;43.33;20.30;;;;;;;;;;5074198;28;20557;-59
2021/12/22 02:25:56;;;;;;;38.93;19.73;;;;;;;;;;5072918;28;20407;-57
2021/12/22 02:28:27;;;;;;;33.57;18.80;;;;;;;;;;5074177;28;20464;-58
2021/12/22 02:30:54;;;;;;;38.37;19.00;;;;;;;;;;5074327;28;20435;-56
2021/12/22 02:33:23;;;;;;;34.83;18.17;;;;;;;;;;5074425;28;20846;-54
2021/12/22 02:38:31;;;;;;;33.70;16.87;;;;;;;;;;5074272;28;20399;-53
2021/12/22 02:40:57;;;;;;;34.00;16.40;;;;;;;;;;5073721;28;20441;-52
2021/12/22 02:43:30;;;;;;;33.53;16.00;;;;;;;;;;5073295;28;20506;-55
2021/12/22 02:45:56;;;;;;;32.30;16.23;;;;;;;;;;5073825;28;20420;-54
2021/12/22 02:48:23;;;;;;;28.00;14.80;;;;;;;;;;5073753;28;20418;-54
2021/12/22 02:50:50;;;;;;;29.00;16.80;;;;;;;;;;5073733;28;20510;-54
2021/12/22 02:53:16;;;;;;;26.80;14.97;;;;;;;;;;5073594;28;20915;-54
2021/12/22 02:55:49;;;;;;;34.17;15.80;;;;;;;;;;5073543;28;20513;-57
2021/12/22 02:58:27;;;;;;;27.57;13.77;;;;;;;;;;5073672;28;20422;-57
2021/12/22 03:01:27;;;;;;;22.37;14.53;;;;;;;;;;5073496;28;20403;-58
2021/12/22 03:06:31;;;;;;;16.50;10.60;;;;;;;;;;5073644;28;20419;-54
2021/12/22 03:08:57;;;;;;;16.70;9.10;;;;;;;;;;5073331;28;20475;-58
2021/12/22 03:11:23;;;;;;;12.60;7.90;;;;;;;;;;5073424;28;20903;-54
2021/12/22 03:13:50;;;;;;;10.03;8.00;;;;;;;;;;5073498;28;20407;-55
2021/12/22 03:16:18;;;;;;;11.30;8.23;;;;;;;;;;5073274;28;20422;-55
2021/12/22 03:18:45;;;;;;;19.93;8.73;;;;;;;;;;5073263;28;20918;-54
2021/12/22 03:21:22;;;;;;;12.67;9.50;;;;;;;;;;5073029;28;20989;-53
2021/12/22 03:23:49;;;;;;;12.40;8.90;;;;;;;;;;5073380;28;20470;-55
2021/12/22 03:26:17;;;;;;;12.17;9.37;;;;;;;;;;5073251;28;20411;-53
2021/12/22 03:28:44;;;;;;;13.60;9.10;;;;;;;;;;5073140;28;20427;-54
2021/12/22 03:31:10;;;;;;;14.27;10.60;;;;;;;;;;5073138;28;20418;-56
2021/12/22 03:33:36;;;;;;;13.13;10.47;;;;;;;;;;5073295;28;20490;-56
2021/12/22 03:36:02;;;;;;;14.10;9.80;;;;;;;;;;5072960;28;20438;-55
2021/12/22 03:38:31;;;;;;;15.40;10.00;;;;;;;;;;5072930;28;20907;-59
2021/12/22 03:40:57;;;;;;;12.60;9.30;;;;;;;;;;5073079;28;20407;-57
2021/12/22 03:43:23;;;;;;;13.50;9.40;;;;;;;;;;5072989;28;20465;-58
2021/12/22 03:45:49;;;;;;;23.60;10.07;;;;;;;;;;5072998;28;20418;-60
2021/12/22 03:48:17;;;;;;;13.30;9.73;;;;;;;;;;5071560;28;20749;-56
2021/12/22 03:50:43;;;;;;;19.33;11.20;;;;;;;;;;5072668;28;20902;-56
2021/12/22 03:53:09;;;;;;;15.40;10.23;;;;;;;;;;5072131;28;20414;-55
2021/12/22 03:55:35;;;;;;;18.67;10.07;;;;;;;;;;5072681;28;20759;-66
2021/12/22 03:58:01;;;;;;;17.43;10.70;;;;;;;;;;5072927;28;20403;-61
2021/12/22 04:00:27;;;;;;;15.63;10.40;;;;;;;;;;5072687;28;20819;-56
2021/12/22 04:02:53;;;;;;;17.37;10.93;;;;;;;;;;5072635;28;20411;-66
2021/12/22 04:05:20;;;;;;;21.77;10.80;;;;;;;;;;5072523;28;20453;-60
2021/12/22 04:07:46;;;;;;;14.90;11.10;;;;;;;;;;5072669;28;20473;-56
2021/12/22 04:10:22;;;;;;;16.77;10.70;;;;;;;;;;5072596;28;20415;-62
2021/12/22 04:12:50;;;;;;;22.20;11.30;;;;;;;;;;5072654;28;20754;-54
2021/12/22 04:15:17;;;;;;;17.30;11.53;;;;;;;;;;5072518;28;20464;-52
2021/12/22 04:17:43;;;;;;;16.67;10.60;;;;;;;;;;5072488;28;20828;-54
2021/12/22 04:20:09;;;;;;;16.27;10.73;;;;;;;;;;5072371;28;20466;-53
2021/12/22 04:22:36;;;;;;;17.53;11.80;;;;;;;;;;5072497;28;20478;-54
2021/12/22 04:25:02;;;;;;;17.13;10.50;;;;;;;;;;5072468;28;20473;-53
2021/12/22 04:27:28;;;;;;;17.83;10.17;;;;;;;;;;5072440;28;20795;-52
2021/12/22 04:29:53;;;;;;;13.90;10.00;;;;;;;;;;5072409;28;20410;-54
2021/12/22 04:32:19;;;;;;;13.50;9.30;;;;;;;;;;5072364;28;21102;-56
2021/12/22 04:34:45;;;;;;;16.17;9.43;;;;;;;;;;5072346;28;20709;-54
2021/12/22 04:37:11;;;;;;;11.77;9.10;;;;;;;;;;5072178;28;20458;-57
2021/12/22 04:39:37;;;;;;;19.73;10.50;;;;;;;;;;5072403;28;20410;-57
2021/12/22 04:42:03;;;;;;;15.83;8.97;;;;;;;;;;5072287;28;20443;-55
2021/12/22 04:44:29;;;;;;;16.07;9.43;;;;;;;;;;5072258;28;20822;-52
2021/12/22 04:46:55;;;;;;;13.13;9.90;;;;;;;;;;5072509;28;20759;-52
2021/12/22 04:49:21;;;;;;;14.27;9.60;;;;;;;;;;5072134;28;20490;-54
2021/12/22 04:51:51;;;;;;;14.57;9.97;;;;;;;;;;5072558;28;20401;-56
2021/12/22 04:54:30;;;;;;;17.03;9.93;;;;;;;;;;5070829;28;20419;-54
2021/12/22 04:56:57;;;;;;;13.70;10.00;;;;;;;;;;5071951;28;20914;-55
2021/12/22 04:59:23;;;;;;;17.73;9.57;;;;;;;;;;5071965;28;20410;-54
2021/12/22 05:01:49;;;;;;;11.70;8.67;;;;;;;;;;5071975;28;20758;-56
2021/12/22 05:04:15;;;;;;;13.73;9.60;;;;;;;;;;5072129;28;20546;-54
2021/12/22 05:06:41;;;;;;;16.57;10.10;;;;;;;;;;5074248;28;20417;-55
2021/12/22 05:09:07;;;;;;;14.13;10.20;;;;;;;;;;5075953;28;20422;-55
2021/12/22 05:11:34;;;;;;;16.60;10.53;;;;;;;;;;5076114;28;20426;-55
2021/12/22 05:14:02;;;;;;;13.00;9.50;;;;;;;;;;5075515;28;20445;-54
2021/12/22 05:16:28;;;;;;;17.50;9.50;;;;;;;;;;5074356;28;20403;-53
2021/12/22 05:18:59;;;;;;;14.20;9.60;;;;;;;;;;5075345;28;20406;-56
2021/12/22 05:21:26;;;;;;;17.10;9.63;;;;;;;;;;5075576;28;20406;-54
2021/12/22 05:23:53;;;;;;;14.67;10.37;;;;;;;;;;5075635;28;20494;-56
2021/12/22 05:26:19;;;;;;;19.37;10.60;;;;;;;;;;5073872;28;20441;-57
2021/12/22 05:28:45;;;;;;;12.80;9.20;;;;;;;;;;5075125;28;20475;-56
2021/12/22 05:31:11;;;;;;;15.90;10.20;;;;;;;;;;5075059;28;20884;-55
2021/12/22 05:33:40;;;;;;;16.37;10.07;;;;;;;;;;5075456;28;20415;-54
2021/12/22 05:36:06;;;;;;;16.50;11.03;;;;;;;;;;5074184;28;20418;-52
2021/12/22 05:38:32;;;;;;;16.13;10.63;;;;;;;;;;5075340;28;20411;-56
2021/12/22 05:40:58;;;;;;;17.60;10.73;;;;;;;;;;5075080;28;20498;-60
2021/12/22 05:43:24;;;;;;;21.20;11.70;;;;;;;;;;5074875;28;20454;-54
2021/12/22 05:45:50;;;;;;;19.27;12.03;;;;;;;;;;5074973;28;20415;-56
2021/12/22 05:48:16;;;;;;;16.87;11.40;;;;;;;;;;5075117;28;20790;-56
2021/12/22 05:50:45;;;;;;;18.40;11.57;;;;;;;;;;5074743;28;20469;-53
2021/12/22 05:53:12;;;;;;;20.30;11.60;;;;;;;;;;5074911;28;20828;-55
2021/12/22 05:55:38;;;;;;;22.60;13.33;;;;;;;;;;5074857;28;20410;-55
2021/12/22 05:58:06;;;;;;;21.17;12.73;;;;;;;;;;5074664;28;20482;-57
2021/12/22 06:00:32;;;;;;;21.20;13.00;;;;;;;;;;5074670;28;20407;-53
2021/12/22 06:02:58;;;;;;;23.50;12.53;;;;;;;;;;5074597;28;20399;-56
2021/12/22 06:05:25;;;;;;;22.70;13.40;;;;;;;;;;5074558;28;20411;-55
2021/12/22 06:07:50;;;;;;;23.20;13.20;;;;;;;;;;5073162;28;20411;-57
2021/12/22 06:10:16;;;;;;;21.20;13.17;;;;;;;;;;5074398;28;20410;-61
2021/12/22 06:12:42;;;;;;;26.40;13.37;;;;;;;;;;5074300;28;20411;-55
2021/12/22 06:15:09;;;;;;;26.40;13.83;;;;;;;;;;5074178;28;20425;-52
2021/12/22 06:17:35;;;;;;;25.27;14.50;;;;;;;;;;5073367;28;20549;-55
2021/12/22 06:20:03;;;;;;;24.70;14.10;;;;;;;;;;5074158;28;20469;-55
2021/12/22 06:22:31;;;;;;;29.13;14.60;;;;;;;;;;5074177;28;20415;-56
2021/12/22 06:24:57;;;;;;;28.17;13.77;;;;;;;;;;5074131;28;20549;-55
2021/12/22 06:27:23;;;;;;;25.87;14.90;;;;;;;;;;5073918;28;20399;-58
2021/12/22 06:29:49;;;;;;;24.67;14.00;;;;;;;;;;5074041;28;20899;-54
2021/12/22 06:32:15;;;;;;;27.60;15.93;;;;;;;;;;5073905;28;20411;-58
2021/12/22 06:34:41;;;;;;;27.17;15.40;;;;;;;;;;5073899;28;20410;-55
2021/12/22 06:37:07;;;;;;;25.33;14.97;;;;;;;;;;5074048;28;20403;-56
2021/12/22 06:39:33;;;;;;;27.57;15.60;;;;;;;;;;5073888;28;20464;-56
2021/12/22 06:42:00;;;;;;;25.00;15.10;;;;;;;;;;5073542;28;20473;-56
2021/12/22 06:44:26;;;;;;;25.77;14.73;;;;;;;;;;5073844;28;20482;-61
2021/12/22 06:46:52;;;;;;;26.43;13.50;;;;;;;;;;5073955;28;20410;-62
2021/12/22 06:49:18;;;;;;;28.27;15.57;;;;;;;;;;5073927;28;20399;-54
2021/12/22 06:51:45;;;;;;;22.03;14.10;;;;;;;;;;5073690;28;20422;-54
2021/12/22 06:54:11;;;;;;;28.17;15.40;;;;;;;;;;5073557;28;20430;-54
2021/12/22 06:56:38;;;;;;;26.00;13.77;;;;;;;;;;5073567;28;20406;-55
2021/12/22 06:59:04;;;;;;;23.17;13.80;;;;;;;;;;5073290;28;20399;-55
2021/12/22 07:01:33;;;;;;;25.07;14.23;;;;;;;;;;5073409;28;20407;-57
2021/12/22 07:03:59;;;;;;;22.23;12.57;;;;;;;;;;5073299;28;20562;-62
2021/12/22 07:06:25;;;;;;;29.20;13.73;;;;;;;;;;5073419;28;20406;-65
2021/12/22 07:08:51;;;;;;;21.80;13.07;;;;;;;;;;5073663;28;20410;-65
2021/12/22 07:11:17;;;;;;;24.17;13.70;;;;;;;;;;5073219;28;20411;-61
2021/12/22 07:13:43;;;;;;;27.73;14.20;;;;;;;;;;5073319;28;20402;-61
2021/12/22 07:16:09;;;;;;;24.73;13.30;;;;;;;;;;5073114;28;20505;-60
2021/12/22 07:18:36;;;;;;;27.87;13.50;;;;;;;;;;5073361;28;20540;-56
2021/12/22 07:21:02;;;;;;;24.13;13.40;;;;;;;;;;5072755;28;20532;-62
2021/12/22 07:23:28;;;;;;;23.33;14.23;;;;;;;;;;5072957;28;20984;-68
2021/12/22 07:25:54;;;;;;;22.30;14.00;;;;;;;;;;5072932;28;20518;-66
2021/12/22 07:28:20;;;;;;;23.60;12.97;;;;;;;;;;5073019;28;20747;-59
2021/12/22 07:30:47;;;;;;;24.47;14.23;;;;;;;;;;5072817;28;20445;-60
2021/12/22 07:33:13;;;;;;;24.17;13.10;;;;;;;;;;5072862;28;20431;-62
2021/12/22 07:35:39;;;;;;;27.37;14.57;;;;;;;;;;5072725;28;20402;-61
2021/12/22 07:38:23;;;;;;;28.13;14.00;;;;;;;;;;5072861;28;20428;-65
2021/12/22 07:40:49;;;;;;;23.43;13.23;;;;;;;;;;5071533;28;20413;-67
2021/12/22 07:43:15;;;;;;;25.30;14.30;;;;;;;;;;5072586;28;20805;-59
2021/12/22 07:45:41;;;;;;;25.90;14.47;;;;;;;;;;5072693;28;20407;-60
2021/12/22 07:48:07;;;;;;;23.03;13.90;;;;;;;;;;5072583;28;20774;-55
2021/12/22 07:50:33;;;;;;;26.73;14.07;;;;;;;;;;5072632;28;20430;-62
2021/12/22 07:52:59;;;;;;;27.53;14.10;;;;;;;;;;5072472;28;20460;-58
2021/12/22 07:55:25;;;;;;;29.60;15.60;;;;;;;;;;5072535;28;20411;-63
2021/12/22 07:57:51;;;;;;;24.90;14.53;;;;;;;;;;5072462;28;20414;-59
2021/12/22 08:00:17;;;;;;;25.73;14.30;;;;;;;;;;5072385;28;20514;-55
2021/12/22 08:02:43;;;;;;;23.50;14.10;;;;;;;;;;5072575;28;20450;-54
2021/12/22 08:05:10;;;;;;;29.60;15.40;;;;;;;;;;5072263;28;20535;-55
2021/12/22 08:07:36;;;;;;;27.97;14.80;;;;;;;;;;5072529;28;20407;-56
2021/12/22 08:10:04;;;;;;;28.93;15.77;;;;;;;;;;5072575;28;20491;-57
2021/12/22 08:12:30;;;;;;;26.73;16.07;;;;;;;;;;5072253;28;20403;-56
2021/12/22 08:14:56;;;;;;;29.23;16.33;;;;;;;;;;5072384;28;20774;-56
2021/12/22 08:17:22;;;;;;;34.07;17.13;;;;;;;;;;5072383;28;20504;-64
2021/12/22 08:19:48;;;;;;;27.60;15.97;;;;;;;;;;5072243;28;20478;-60
2021/12/22 08:22:15;;;;;;;31.43;15.87;;;;;;;;;;5072549;28;20737;-61
2021/12/22 08:24:41;;;;;;;29.70;15.77;;;;;;;;;;5072285;28;20470;-57
2021/12/22 08:27:06;;;;;;;27.13;15.70;;;;;;;;;;5072363;28;20414;-60
2021/12/22 08:29:33;;;;;;;32.37;17.17;;;;;;;;;;5072174;28;20468;-57
2021/12/22 08:31:59;;;;;;;27.37;15.57;;;;;;;;;;5072141;28;20399;-57
2021/12/22 08:34:34;;;;;;;28.87;16.30;;;;;;;;;;5070758;28;20484;-62
2021/12/22 08:39:45;;;;;;;33.00;17.23;;;;;;;;;;5072777;28;20807;-58
2021/12/22 08:42:11;;;;;;;29.40;15.83;;;;;;;;;;5076096;28;20907;-59
2021/12/22 08:44:37;;;;;;;36.70;16.00;;;;;;;;;;5076062;28;20527;-61
2021/12/22 08:47:03;;;;;;;28.57;16.20;;;;;;;;;;5075840;28;20438;-56
2021/12/22 08:49:29;;;;;;;35.90;17.67;;;;;;;;;;5075716;28;20407;-56
2021/12/22 08:51:56;;;;;;;31.23;17.40;;;;;;;;;;5075681;28;20406;-57
2021/12/22 08:54:22;;;;;;;32.93;16.83;;;;;;;;;;5076224;28;20418;-56
2021/12/22 08:56:48;;;;;;;33.40;17.93;;;;;;;;;;5075767;28;20417;-57
2021/12/22 08:59:14;;;;;;;30.90;17.17;;;;;;;;;;5075908;28;20426;-55
2021/12/22 09:01:41;;;;;;;26.23;15.23;;;;;;;;;;5075523;28;20848;-56
2021/12/22 09:04:07;;;;;;;33.47;16.73;;;;;;;;;;5074798;28;20470;-55
2021/12/22 09:06:33;;;;;;;29.10;15.67;;;;;;;;;;5075616;28;20964;-57
2021/12/22 09:08:59;;;;;;;33.77;17.30;;;;;;;;;;5075724;28;20422;-57
2021/12/22 09:11:25;;;;;;;31.17;17.27;;;;;;;;;;5075805;28;20779;-57
2021/12/22 09:13:51;;;;;;;33.97;18.00;;;;;;;;;;5074183;28;20895;-55
2021/12/22 09:16:17;;;;;;;28.83;16.70;;;;;;;;;;5074694;28;20398;-57
2021/12/22 09:18:43;;;;;;;35.83;17.47;;;;;;;;;;5074380;28;20434;-60
2021/12/22 09:21:10;;;;;;;36.43;18.37;;;;;;;;;;5074481;28;20558;-57
2021/12/22 09:23:37;;;;;;;37.80;18.40;;;;;;;;;;5074307;28;20895;-56
2021/12/22 09:26:03;;;;;;;33.03;17.47;;;;;;;;;;5074273;28;20513;-56
2021/12/22 09:28:29;;;;;;;33.50;17.27;;;;;;;;;;5074271;28;20919;-56
2021/12/22 09:30:55;;;;;;;30.67;16.50;;;;;;;;;;5074230;28;20495;-57
2021/12/22 09:33:24;;;;;;;31.50;17.20;;;;;;;;;;5074243;28;20410;-57
2021/12/22 09:35:50;;;;;;;34.80;17.80;;;;;;;;;;5074197;28;20414;-57
2021/12/22 09:38:17;;;;;;;35.67;17.93;;;;;;;;;;5074296;28;20843;-57
2021/12/22 09:40:43;;;;;;;35.57;17.03;;;;;;;;;;5075183;28;20407;-62
2021/12/22 09:43:09;;;;;;;35.43;18.50;;;;;;;;;;5074974;28;20407;-57
2021/12/22 09:45:41;;;;;;;33.23;17.50;;;;;;;;;;5074872;28;20469;-57
2021/12/22 09:50:49;;;;;;;38.27;18.43;;;;;;;;;;5074794;28;20422;-56
2021/12/22 09:53:16;;;;;;;35.60;17.60;;;;;;;;;;5075165;28;20425;-58
2021/12/22 09:55:42;;;;;;;35.03;18.37;;;;;;;;;;5074497;28;20442;-57
2021/12/22 09:58:11;;;;;;;37.70;18.20;;;;;;;;;;5074483;28;20457;-54
2021/12/22 10:00:38;;;;;;;31.57;17.80;;;;;;;;;;5074723;28;20411;-59
2021/12/22 10:03:05;;;;;;;31.73;16.63;;;;;;;;;;5074228;28;20403;-56
2021/12/22 10:05:31;;;;;;;34.90;18.20;;;;;;;;;;5074575;28;20422;-58
2021/12/22 10:08:06;;;;;;;34.03;17.90;;;;;;;;;;5074391;28;20521;-57
2021/12/22 10:10:33;;;;;;;28.27;16.23;;;;;;;;;;5074330;28;20415;-55
2021/12/22 10:13:06;;;;;;;31.33;17.47;;;;;;;;;;5074287;28;20426;-59
2021/12/22 10:15:33;;;;;;;31.53;17.03;;;;;;;;;;5074202;28;20411;-57
2021/12/22 10:18:07;;;;;;;30.63;16.80;;;;;;;;;;5074459;28;20410;-55
2021/12/22 10:20:33;;;;;;;34.40;17.30;;;;;;;;;;5073924;28;20465;-57
2021/12/22 10:22:59;;;;;;;34.73;16.70;;;;;;;;;;5074279;28;20826;-57
2021/12/22 10:25:29;;;;;;;33.70;16.70;;;;;;;;;;5074018;28;20502;-56
2021/12/22 10:28:04;;;;;;;34.77;16.90;;;;;;;;;;5072805;28;20471;-56
2021/12/22 10:30:37;;;;;;;36.03;16.97;;;;;;;;;;5074033;28;20421;-55
2021/12/22 10:33:05;;;;;;;36.67;16.73;;;;;;;;;;5074295;28;20548;-58
2021/12/22 10:35:37;;;;;;;37.43;18.10;;;;;;;;;;5073801;28;20415;-56
2021/12/22 10:38:03;;;;;;;31.97;16.77;;;;;;;;;;5074009;28;20422;-58
2021/12/22 10:40:32;;;;;;;35.67;17.70;;;;;;;;;;5073829;28;20410;-57
2021/12/22 10:42:59;;;;;;;32.90;16.43;;;;;;;;;;5072363;28;20447;-58
2021/12/22 10:45:26;;;;;;;30.20;16.30;;;;;;;;;;5073297;28;20986;-54
2021/12/22 10:50:59;;;;;;;35.33;15.30;;;;;;;;;;5091709;28;20410;-57
2021/12/22 10:53:25;;;;;;;29.20;15.70;;;;;;;;;;5091396;28;20432;-57
2021/12/22 10:55:52;;;;;;;32.07;16.73;;;;;;;;;;5082988;28;20892;-58
2021/12/22 10:58:21;;;;;;;32.50;15.80;;;;;;;;;;5073250;28;20410;-57
2021/12/22 11:01:22;;;;;;;33.33;17.00;;;;;;;;;;5073427;28;20437;-56
2021/12/22 11:03:53;;;;;;;32.40;17.20;;;;;;;;;;5053907;28;20474;-55
2021/12/22 11:06:26;;;;;;;32.33;15.83;;;;;;;;;;5073144;28;20422;-56
2021/12/22 11:09:04;;;;;;;30.07;15.90;;;;;;;;;;5073308;28;20471;-57
2021/12/22 11:11:32;;;;;;;29.17;16.53;;;;;;;;;;5073082;28;20414;-57
2021/12/22 11:14:12;;;;;;;33.93;15.70;;;;;;;;;;5073154;28;20415;-57
2021/12/22 11:16:57;;;;;;;33.57;16.60;;;;;;;;;;5073165;28;20441;-56
2021/12/22 11:19:24;;;;;;;34.80;17.70;;;;;;;;;;5072823;28;20457;-56
2021/12/22 11:22:07;;;;;;;32.40;17.03;;;;;;;;;;5072929;28;20410;-57
2021/12/22 11:24:35;;;;;;;30.53;16.70;;;;;;;;;;5072890;28;21005;-54
2021/12/22 11:27:01;;;;;;;29.53;16.30;;;;;;;;;;5072489;28;20409;-57
2021/12/22 11:29:27;;;;;;;29.23;14.97;;;;;;;;;;5071617;28;20829;-54
2021/12/22 11:31:53;;;;;;;29.17;15.43;;;;;;;;;;5072767;28;20411;-57
2021/12/22 11:34:21;;;;;;;30.30;15.30;;;;;;;;;;5073145;28;20429;-55
2021/12/22 11:36:49;;;;;;;27.83;16.07;;;;;;;;;;5072394;28;20444;-56
2021/12/22 11:39:15;;;;;;;26.57;15.33;;;;;;;;;;5072556;28;20407;-54
2021/12/22 11:41:54;;;;;;;30.77;16.07;;;;;;;;;;5072674;28;20500;-54
2021/12/22 11:44:22;;;;;;;44.63;17.37;;;;;;;;;;5072680;28;20481;-57
2021/12/22 11:46:48;;;;;;;28.27;15.83;;;;;;;;;;5072709;28;20472;-56
2021/12/22 11:49:19;;;;;;;25.20;14.03;;;;;;;;;;5072883;28;20419;-54
2021/12/22 11:51:45;;;;;;;29.50;15.97;;;;;;;;;;5071226;28;20419;-55
2021/12/22 11:54:12;;;;;;;26.77;14.40;;;;;;;;;;5072558;28;20767;-53
2021/12/22 11:56:40;;;;;;;26.77;15.00;;;;;;;;;;5072531;28;20816;-55
2021/12/22 11:59:07;;;;;;;28.93;15.60;;;;;;;;;;5072553;28;20907;-56
2021/12/22 12:01:33;;;;;;;26.93;15.07;;;;;;;;;;5072690;28;20866;-58
2021/12/22 12:04:13;;;;;;;30.57;15.83;;;;;;;;;;5072380;28;20466;-61
2021/12/22 12:06:49;;;;;;;27.17;15.00;;;;;;;;;;5072447;28;20768;-54
2021/12/22 12:09:15;;;;;;;25.30;14.57;;;;;;;;;;5072731;28;20453;-52
2021/12/22 12:11:55;;;;;;;24.90;15.13;;;;;;;;;;5072509;28;20502;-54
2021/12/22 12:23:17;;;;;;;22.00;12.77;;;;;;;;;;5076339;28;20820;-55
2021/12/22 12:25:43;;;;;;;19.07;12.37;;;;;;;;;;5075966;28;20953;-54
2021/12/22 12:28:19;;;;;;;20.90;13.10;;;;;;;;;;5076249;28;20505;-55
2021/12/22 12:30:46;;;;;;;20.97;12.93;;;;;;;;;;5076500;28;20436;-53
2021/12/22 12:33:13;;;;;;;23.40;13.73;;;;;;;;;;5076477;28;20410;-51
2021/12/22 12:35:49;;;;;;;22.60;14.33;;;;;;;;;;5076312;28;20999;-56
2021/12/22 12:38:17;;;;;;;20.57;12.70;;;;;;;;;;5076005;28;20402;-52
2021/12/22 12:40:55;;;;;;;24.80;13.53;;;;;;;;;;5076609;28;20402;-54
2021/12/22 12:43:40;;;;;;;20.67;12.97;;;;;;;;;;5074707;28;20454;-66
2021/12/22 12:46:24;;;;;;;20.20;12.70;;;;;;;;;;5075932;28;20406;-57
2021/12/22 12:48:55;;;;;;;18.80;12.70;;;;;;;;;;5075885;28;20414;-60
2021/12/22 12:51:21;;;;;;;23.50;12.70;;;;;;;;;;5075885;28;20805;-57
2021/12/22 12:53:48;;;;;;;21.30;13.60;;;;;;;;;;5075959;28;20411;-60
2021/12/22 12:56:15;;;;;;;21.03;13.13;;;;;;;;;;5075805;28;20403;-54
2021/12/22 12:58:52;;;;;;;19.87;12.90;;;;;;;;;;5074351;28;20418;-55
2021/12/22 13:01:18;;;;;;;19.80;12.83;;;;;;;;;;5074542;28;20468;-54
2021/12/22 13:03:48;;;;;;;21.40;12.67;;;;;;;;;;5075514;28;20455;-56
2021/12/22 13:06:14;;;;;;;18.73;12.63;;;;;;;;;;5075615;28;20449;-54
2021/12/22 13:08:40;;;;;;;17.87;12.37;;;;;;;;;;5075604;28;20414;-55
2021/12/22 13:11:13;;;;;;;19.20;12.37;;;;;;;;;;5074334;28;20490;-55
2021/12/22 13:15:45;;;;;;;22.70;14.33;;;;;;;;;;5075480;28;20407;-53
2021/12/22 13:16:25;;;;;;;19.03;12.50;;;;;;;;;;5075384;28;20406;-53
2021/12/22 13:18:51;;;;;;;17.80;12.30;;;;;;;;;;5075136;28;20424;-54
2021/12/22 13:21:25;;;;;;;21.27;12.90;;;;;;;;;;5073732;28;20450;-53
2021/12/22 13:23:51;;;;;;;21.90;14.33;;;;;;;;;;5075013;28;20484;-52
2021/12/22 13:26:18;;;;;;;21.30;12.97;;;;;;;;;;5074842;28;20426;-53
2021/12/22 13:28:44;;;;;;;24.30;14.73;;;;;;;;;;5075017;28;20880;-53
2021/12/22 13:31:11;;;;;;;20.67;12.83;;;;;;;;;;5075001;28;20506;-52
2021/12/22 13:33:38;;;;;;;19.70;12.60;;;;;;;;;;5075428;28;20407;-55
2021/12/22 13:36:09;;;;;;;19.73;13.60;;;;;;;;;;5075076;28;20763;-53
2021/12/22 13:38:42;;;;;;;19.07;12.30;;;;;;;;;;5075338;28;20451;-55
2021/12/22 13:41:09;;;;;;;23.00;12.77;;;;;;;;;;5074634;28;20414;-55
2021/12/22 13:43:37;;;;;;;20.90;13.17;;;;;;;;;;5074631;28;20481;-55
2021/12/22 13:46:09;;;;;;;20.00;12.97;;;;;;;;;;5075323;28;20489;-56
2021/12/22 13:48:47;;;;;;;19.57;12.73;;;;;;;;;;5074802;28;20547;-55
2021/12/22 13:51:15;;;;;;;19.43;11.97;;;;;;;;;;5074889;28;20552;-60
2021/12/22 13:53:42;;;;;;;18.60;12.33;;;;;;;;;;5074643;28;20467;-55
2021/12/22 13:56:10;;;;;;;20.10;12.83;;;;;;;;;;5074404;28;20403;-58
2021/12/22 13:58:44;;;;;;;23.13;13.10;;;;;;;;;;5074945;28;20483;-60
2021/12/22 14:01:18;;;;;;;19.93;12.50;;;;;;;;;;5073587;28;20874;-54
2021/12/22 14:03:45;;;;;;;21.77;13.07;;;;;;;;;;5073284;28;20458;-62
2021/12/22 14:06:14;;;;;;;20.20;12.60;;;;;;;;;;5074482;28;20406;-61
2021/12/22 14:08:41;;;;;;;20.57;12.23;;;;;;;;;;5073396;28;20395;-61
2021/12/22 14:11:26;;;;;;;19.60;11.97;;;;;;;;;;5073027;28;20415;-54
2021/12/22 14:13:52;;;;;;;20.60;12.87;;;;;;;;;;5073493;28;20430;-58
2021/12/22 14:16:30;;;;;;;22.30;12.93;;;;;;;;;;5074356;28;20446;-60
2021/12/22 14:18:56;;;;;;;22.70;12.50;;;;;;;;;;5074058;28;20770;-57
2021/12/22 14:21:23;;;;;;;20.53;12.60;;;;;;;;;;5072480;28;20423;-54
2021/12/22 14:23:56;;;;;;;18.40;11.43;;;;;;;;;;5072940;28;20474;-56
2021/12/22 14:26:23;;;;;;;20.13;12.53;;;;;;;;;;5073846;28;20417;-58
2021/12/22 14:29:05;;;;;;;23.67;12.70;;;;;;;;;;5072708;28;20515;-59
2021/12/22 14:31:31;;;;;;;18.27;12.23;;;;;;;;;;5073632;28;20488;-57
2021/12/22 14:34:08;;;;;;;19.67;12.33;;;;;;;;;;5072546;28;20508;-58
2021/12/22 14:36:47;;;;;;;18.80;12.17;;;;;;;;;;5073282;28;20415;-59
2021/12/22 14:39:13;;;;;;;19.80;12.57;;;;;;;;;;5073099;28;20417;-60
2021/12/22 14:41:40;;;;;;;20.63;13.07;;;;;;;;;;5073731;28;20456;-53
2021/12/22 14:44:26;;;;;;;23.20;12.67;;;;;;;;;;5073901;28;20470;-54
2021/12/22 14:46:52;;;;;;;23.37;12.90;;;;;;;;;;5072238;28;20412;-54
2021/12/22 14:49:20;;;;;;;22.57;12.73;;;;;;;;;;5073582;28;20415;-55
2021/12/22 14:51:46;;;;;;;22.77;13.40;;;;;;;;;;5073603;28;20823;-52
2021/12/22 14:54:14;;;;;;;21.00;13.47;;;;;;;;;;5073697;28;20807;-53